Terminal Aerodrome Forecast
Issued by NWS

Current Version | Previous Version | Graphics & Text | Print | Product List | Glossary On
Versions: 1 2 3 4 5 6 7 8 9 10 11 12 13 14 15 16 17 18 19
000
FTUS41 KILN 031734
TAFLUK
TAF
KLUK 031734Z 0318/0418 31005KT P6SM VCTS BKN035CB
     FM040000 00000KT P6SM SCT250
     FM040600 00000KT 4SM BR SCT250
     FM040800 00000KT 2SM BR SCT040
      TEMPO 0408/0412 1/2SM FG BKN004
     FM041300 23004KT P6SM VCTS BKN040CB=

USA.gov is the U.S. government's official web portal to all federal, state and local government web resources and services.